sensor_id;sensor_type;location;lat;lon;timestamp;pressure;altitude;pressure_sealevel;temperature;humidity
45253;BME280;63171;50.520;30.486;2023-11-19T00:00:04;100609.88;;;-0.18;79.60
45253;BME280;63171;50.520;30.486;2023-11-19T00:01:00;100609.00;;;-0.18;79.22
45253;BME280;63171;50.520;30.486;2023-11-19T00:01:50;100609.88;;;-0.18;79.15
45253;BME280;63171;50.520;30.486;2023-11-19T00:02:40;100611.59;;;-0.18;79.34
45253;BME280;63171;50.520;30.486;2023-11-19T00:03:29;100606.47;;;-0.20;79.30
45253;BME280;63171;50.520;30.486;2023-11-19T00:04:20;100606.47;;;-0.20;79.27
45253;BME280;63171;50.520;30.486;2023-11-19T00:05:10;100609.88;;;-0.19;79.22
45253;BME280;63171;50.520;30.486;2023-11-19T00:06:00;100609.91;;;-0.22;79.23
45253;BME280;63171;50.520;30.486;2023-11-19T00:06:52;100610.78;;;-0.23;79.34
45253;BME280;63171;50.520;30.486;2023-11-19T00:07:41;100611.66;;;-0.24;79.41
45253;BME280;63171;50.520;30.486;2023-11-19T00:08:31;100619.38;;;-0.29;79.03
45253;BME280;63171;50.520;30.486;2023-11-19T00:09:22;100609.09;;;-0.31;79.45
45253;BME280;63171;50.520;30.486;2023-11-19T00:10:12;100611.66;;;-0.24;79.31
45253;BME280;63171;50.520;30.486;2023-11-19T00:11:04;100611.66;;;-0.24;79.46
45253;BME280;63171;50.520;30.486;2023-11-19T00:11:54;100612.50;;;-0.27;79.55
45253;BME280;63171;50.520;30.486;2023-11-19T00:12:45;100613.38;;;-0.26;79.34
45253;BME280;63171;50.520;30.486;2023-11-19T00:13:35;100604.75;;;-0.21;79.30
45253;BME280;63171;50.520;30.486;2023-11-19T00:14:26;100607.34;;;-0.22;79.31
45253;BME280;63171;50.520;30.486;2023-11-19T00:15:16;100604.78;;;-0.30;79.16
45253;BME280;63171;50.520;30.486;2023-11-19T00:16:07;100604.78;;;-0.27;79.72
45253;BME280;63171;50.520;30.486;2023-11-19T00:16:59;100601.34;;;-0.27;79.71
45253;BME280;63171;50.520;30.486;2023-11-19T00:17:48;100599.63;;;-0.24;79.37
45253;BME280;63171;50.520;30.486;2023-11-19T00:18:38;100599.59;;;-0.21;79.33
45253;BME280;63171;50.520;30.486;2023-11-19T00:19:29;100597.91;;;-0.22;79.57
45253;BME280;63171;50.520;30.486;2023-11-19T00:20:19;100609.00;;;-0.18;79.51
45253;BME280;63171;50.520;30.486;2023-11-19T00:21:09;100598.75;;;-0.21;79.40
45253;BME280;63171;50.520;30.486;2023-11-19T00:22:00;100596.19;;;-0.27;79.59
45253;BME280;63171;50.520;30.486;2023-11-19T00:22:52;100602.28;;;-0.41;79.45
45253;BME280;63171;50.520;30.486;2023-11-19T00:23:41;100600.56;;;-0.40;79.40
45253;BME280;63171;50.520;30.486;2023-11-19T00:24:32;100597.13;;;-0.36;79.66
45253;BME280;63171;50.520;30.486;2023-11-19T00:25:22;100591.94;;;-0.33;79.59
45253;BME280;63171;50.520;30.486;2023-11-19T00:26:14;100605.69;;;-0.33;79.32
45253;BME280;63171;50.520;30.486;2023-11-19T00:27:06;100595.34;;;-0.28;79.72
45253;BME280;63171;50.520;30.486;2023-11-19T00:27:57;100604.78;;;-0.27;79.86
45253;BME280;63171;50.520;30.486;2023-11-19T00:28:48;100605.63;;;-0.23;80.04
45253;BME280;63171;50.520;30.486;2023-11-19T00:29:38;100602.19;;;-0.21;79.72
45253;BME280;63171;50.520;30.486;2023-11-19T00:30:30;100587.59;;;-0.22;79.64
45253;BME280;63171;50.520;30.486;2023-11-19T00:31:20;100598.75;;;-0.21;79.76
45253;BME280;63171;50.520;30.486;2023-11-19T00:32:10;100595.31;;;-0.20;80.17
45253;BME280;63171;50.520;30.486;2023-11-19T00:33:01;100602.19;;;-0.21;79.82
45253;BME280;63171;50.520;30.486;2023-11-19T00:33:50;100597.91;;;-0.22;80.09
45253;BME280;63171;50.520;30.486;2023-11-19T00:34:39;100599.59;;;-0.21;79.75
45253;BME280;63171;50.520;30.486;2023-11-19T00:35:29;100602.16;;;-0.19;79.77
45253;BME280;63171;50.520;30.486;2023-11-19T00:36:21;100605.59;;;-0.19;80.03
45253;BME280;63171;50.520;30.486;2023-11-19T00:37:13;100599.59;;;-0.19;80.14
45253;BME280;63171;50.520;30.486;2023-11-19T00:38:02;100603.06;;;-0.28;80.08
45253;BME280;63171;50.520;30.486;2023-11-19T00:39:12;100613.38;;;-0.25;80.02
45253;BME280;63171;50.520;30.486;2023-11-19T00:40:04;100606.47;;;-0.20;80.06
45253;BME280;63171;50.520;30.486;2023-11-19T00:40:55;100606.44;;;-0.18;80.20
45253;BME280;63171;50.520;30.486;2023-11-19T00:41:46;100607.28;;;-0.18;80.40
45253;BME280;63171;50.520;30.486;2023-11-19T00:42:36;100603.91;;;-0.23;80.26
45253;BME280;63171;50.520;30.486;2023-11-19T00:43:27;100603.91;;;-0.23;79.98
45253;BME280;63171;50.520;30.486;2023-11-19T00:44:17;100609.91;;;-0.22;80.15
45253;BME280;63171;50.520;30.486;2023-11-19T00:45:09;100602.19;;;-0.21;79.94
45253;BME280;63171;50.520;30.486;2023-11-19T00:45:59;100609.00;;;-0.18;79.98
45253;BME280;63171;50.520;30.486;2023-11-19T00:46:49;100602.13;;;-0.16;79.97
45253;BME280;63171;50.520;30.486;2023-11-19T00:47:39;100597.84;;;-0.17;79.93
45253;BME280;63171;50.520;30.486;2023-11-19T00:48:29;100597.81;;;-0.14;80.04
45253;BME280;63171;50.520;30.486;2023-11-19T00:49:21;100602.13;;;-0.13;80.11
45253;BME280;63171;50.520;30.486;2023-11-19T00:50:10;100605.56;;;-0.11;80.00
45253;BME280;63171;50.520;30.486;2023-11-19T00:51:00;100612.44;;;-0.13;80.38
45253;BME280;63171;50.520;30.486;2023-11-19T00:51:50;100601.28;;;-0.12;80.52
45253;BME280;63171;50.520;30.486;2023-11-19T00:52:40;100606.41;;;-0.12;80.39
45253;BME280;63171;50.520;30.486;2023-11-19T00:53:30;100595.28;;;-0.13;80.19
45253;BME280;63171;50.520;30.486;2023-11-19T00:54:21;100601.28;;;-0.12;79.99
45253;BME280;63171;50.520;30.486;2023-11-19T00:55:14;100592.66;;;-0.10;80.22
45253;BME280;63171;50.520;30.486;2023-11-19T00:56:04;100595.22;;;-0.07;80.35
45253;BME280;63171;50.520;30.486;2023-11-19T00:57:15;100602.06;;;-0.04;80.23
45253;BME280;63171;50.520;30.486;2023-11-19T00:58:05;100590.03;;;-0.05;80.20
45253;BME280;63171;50.520;30.486;2023-11-19T00:58:56;100593.50;;;-0.06;80.38
45253;BME280;63171;50.520;30.486;2023-11-19T00:59:46;100593.50;;;-0.08;80.45
45253;BME280;63171;50.520;30.486;2023-11-19T01:02:19;100589.19;;;-0.04;80.32
45253;BME280;63171;50.520;30.486;2023-11-19T01:03:10;100591.75;;;-0.06;80.22
45253;BME280;63171;50.520;30.486;2023-11-19T01:04:00;100590.06;;;-0.08;80.38
45253;BME280;63171;50.520;30.486;2023-11-19T01:04:51;100592.66;;;-0.08;80.16
45253;BME280;63171;50.520;30.486;2023-11-19T01:05:41;100585.75;;;-0.05;80.58
45253;BME280;63171;50.520;30.486;2023-11-19T01:06:31;100590.00;;;-0.02;80.28
45253;BME280;63171;50.520;30.486;2023-11-19T01:07:22;100586.63;;;-0.07;80.18
45253;BME280;63171;50.520;30.486;2023-11-19T01:08:14;100582.31;;;-0.05;80.57
45253;BME280;63171;50.520;30.486;2023-11-19T01:09:05;100590.03;;;-0.04;80.41
45253;BME280;63171;50.520;30.486;2023-11-19T01:09:55;100588.31;;;-0.03;80.43
45253;BME280;63171;50.520;30.486;2023-11-19T01:10:45;100585.72;;;-0.03;80.62
45253;BME280;63171;50.520;30.486;2023-11-19T01:11:36;100584.00;;;-0.03;80.32
45253;BME280;63171;50.520;30.486;2023-11-19T01:12:28;100590.88;;;-0.03;80.23
45253;BME280;63171;50.520;30.486;2023-11-19T01:13:20;100582.31;;;-0.05;80.60
45253;BME280;63171;50.520;30.486;2023-11-19T01:14:09;100586.59;;;-0.04;80.57
45253;BME280;63171;50.520;30.486;2023-11-19T01:15:00;100585.78;;;-0.09;80.11
45253;BME280;63171;50.520;30.486;2023-11-19T01:15:51;100588.31;;;-0.05;80.11
45253;BME280;63171;50.520;30.486;2023-11-19T01:16:40;100586.56;;;-0.01;80.40
45253;BME280;63171;50.520;30.486;2023-11-19T01:17:32;100590.00;;;-0.02;80.15
45253;BME280;63171;50.520;30.486;2023-11-19T01:18:22;100591.75;;;-0.04;80.56
45253;BME280;63171;50.520;30.486;2023-11-19T01:19:12;100584.97;;;-0.11;80.43
45253;BME280;63171;50.520;30.486;2023-11-19T01:20:03;100592.66;;;-0.10;80.47
45253;BME280;63171;50.520;30.486;2023-11-19T01:22:31;100590.16;;;-0.20;80.29
45253;BME280;63171;50.520;30.486;2023-11-19T01:23:28;100590.22;;;-0.26;80.29
45253;BME280;63171;50.520;30.486;2023-11-19T01:26:39;100588.44;;;-0.20;80.11
45253;BME280;63171;50.520;30.486;2023-11-19T01:27:20;100596.16;;;-0.20;80.00
45253;BME280;63171;50.520;30.486;2023-11-19T01:28:14;100582.41;;;-0.17;79.98
45253;BME280;63171;50.520;30.486;2023-11-19T01:29:04;100583.22;;;-0.14;80.18
45253;BME280;63171;50.520;30.486;2023-11-19T01:30:05;100576.38;;;-0.12;80.55
45253;BME280;63171;50.520;30.486;2023-11-19T01:36:18;100571.22;;;-0.15;80.06
45253;BME280;63171;50.520;30.486;2023-11-19T01:37:09;100573.81;;;-0.18;80.06
45253;BME280;63171;50.520;30.486;2023-11-19T01:37:59;100566.13;;;-0.19;79.98
45253;BME280;63171;50.520;30.486;2023-11-19T01:38:49;100577.31;;;-0.22;80.02
45253;BME280;63171;50.520;30.486;2023-11-19T01:39:39;100571.25;;;-0.16;79.91
45253;BME280;63171;50.520;30.486;2023-11-19T01:40:29;100566.09;;;-0.13;79.95
45253;BME280;63171;50.520;30.486;2023-11-19T01:41:19;100566.16;;;-0.22;79.80
45253;BME280;63171;50.520;30.486;2023-11-19T01:42:09;100556.69;;;-0.19;79.85
45253;BME280;63171;50.520;30.486;2023-11-19T01:42:59;100558.38;;;-0.18;80.20
45253;BME280;63171;50.520;30.486;2023-11-19T01:43:51;100565.25;;;-0.17;80.27
45253;BME280;63171;50.520;30.486;2023-11-19T01:44:41;100568.66;;;-0.16;79.88
45253;BME280;63171;50.520;30.486;2023-11-19T01:45:31;100572.97;;;-0.17;80.23
45253;BME280;63171;50.520;30.486;2023-11-19T01:46:22;100560.09;;;-0.17;80.16
45253;BME280;63171;50.520;30.486;2023-11-19T01:47:11;100560.13;;;-0.20;80.18
45253;BME280;63171;50.520;30.486;2023-11-19T01:48:02;100561.84;;;-0.20;79.97
45253;BME280;63171;50.520;30.486;2023-11-19T01:48:53;100561.00;;;-0.22;79.77
45253;BME280;63171;50.520;30.486;2023-11-19T01:49:43;100564.44;;;-0.23;79.77
45253;BME280;63171;50.520;30.486;2023-11-19T01:50:33;100551.56;;;-0.22;79.64
45253;BME280;63171;50.520;30.486;2023-11-19T01:51:23;100550.69;;;-0.19;79.79
45253;BME280;63171;50.520;30.486;2023-11-19T01:52:14;100558.44;;;-0.22;79.76
45253;BME280;63171;50.520;30.486;2023-11-19T01:53:03;100563.56;;;-0.21;79.84
45253;BME280;63171;50.520;30.486;2023-11-19T01:53:54;100559.31;;;-0.23;80.00
45253;BME280;63171;50.520;30.486;2023-11-19T01:54:44;100554.19;;;-0.26;80.04
45253;BME280;63171;50.520;30.486;2023-11-19T01:55:35;100549.03;;;-0.25;79.97
45253;BME280;63171;50.520;30.486;2023-11-19T01:56:26;100548.13;;;-0.22;79.60
45253;BME280;63171;50.520;30.486;2023-11-19T01:57:16;100548.97;;;-0.20;79.88
45253;BME280;63171;50.520;30.486;2023-11-19T01:58:07;100552.38;;;-0.18;80.23
45253;BME280;63171;50.520;30.486;2023-11-19T01:58:58;100552.38;;;-0.18;79.64
45253;BME280;63171;50.520;30.486;2023-11-19T01:59:48;100552.38;;;-0.18;80.21
45253;BME280;63171;50.520;30.486;2023-11-19T02:00:40;100552.38;;;-0.18;79.75
45253;BME280;63171;50.520;30.486;2023-11-19T02:01:29;100551.53;;;-0.20;80.10
45253;BME280;63171;50.520;30.486;2023-11-19T02:02:19;100551.56;;;-0.22;79.75
45253;BME280;63171;50.520;30.486;2023-11-19T02:03:10;100546.41;;;-0.22;80.13
45253;BME280;63171;50.520;30.486;2023-11-19T02:03:59;100547.28;;;-0.24;79.63
45253;BME280;63171;50.520;30.486;2023-11-19T02:04:50;100561.88;;;-0.25;80.02
45253;BME280;63171;50.520;30.486;2023-11-19T02:05:42;100553.28;;;-0.27;80.04
45253;BME280;63171;50.520;30.486;2023-11-19T02:06:32;100547.28;;;-0.24;79.79
45253;BME280;63171;50.520;30.486;2023-11-19T02:07:23;100555.00;;;-0.23;79.68
45253;BME280;63171;50.520;30.486;2023-11-19T02:08:14;100561.00;;;-0.22;80.02
45253;BME280;63171;50.520;30.486;2023-11-19T02:09:04;100558.44;;;-0.24;80.06
45253;BME280;63171;50.520;30.486;2023-11-19T02:09:57;100555.00;;;-0.23;79.59
45253;BME280;63171;50.520;30.486;2023-11-19T02:10:49;100554.13;;;-0.22;79.92
45253;BME280;63171;50.520;30.486;2023-11-19T02:11:39;100561.81;;;-0.19;79.72
45253;BME280;63171;50.520;30.486;2023-11-19T02:12:30;100554.97;;;-0.20;79.62
45253;BME280;63171;50.520;30.486;2023-11-19T02:13:23;100554.13;;;-0.20;79.70
45253;BME280;63171;50.520;30.486;2023-11-19T02:14:14;100554.13;;;-0.20;80.04
45253;BME280;63171;50.520;30.486;2023-11-19T02:15:05;100571.31;;;-0.22;79.62
45253;BME280;63171;50.520;30.486;2023-11-19T02:15:55;100562.75;;;-0.29;80.02
45253;BME280;63171;50.520;30.486;2023-11-19T02:16:45;100560.19;;;-0.26;80.12
45253;BME280;63171;50.520;30.486;2023-11-19T02:17:35;100553.31;;;-0.28;80.07
45253;BME280;63171;50.520;30.486;2023-11-19T02:18:27;100552.44;;;-0.27;79.85
45253;BME280;63171;50.520;30.486;2023-11-19T02:19:18;100558.44;;;-0.24;79.83
45253;BME280;63171;50.520;30.486;2023-11-19T02:20:09;100556.75;;;-0.30;79.99
45253;BME280;63171;50.520;30.486;2023-11-19T02:21:01;100554.19;;;-0.30;79.84
45253;BME280;63171;50.520;30.486;2023-11-19T02:21:51;100551.59;;;-0.28;79.64
45253;BME280;63171;50.520;30.486;2023-11-19T02:22:41;100543.88;;;-0.26;79.67
45253;BME280;63171;50.520;30.486;2023-11-19T02:23:30;100540.44;;;-0.28;80.07
45253;BME280;63171;50.520;30.486;2023-11-19T02:24:21;100532.69;;;-0.27;79.65
45253;BME280;63171;50.520;30.486;2023-11-19T02:25:12;100536.16;;;-0.28;80.15
45253;BME280;63171;50.520;30.486;2023-11-19T02:26:10;100532.72;;;-0.30;80.00
45253;BME280;63171;50.520;30.486;2023-11-19T02:27:10;100539.59;;;-0.26;79.67
45253;BME280;63171;50.520;30.486;2023-11-19T02:28:05;100537.84;;;-0.27;79.93
45253;BME280;63171;50.520;30.486;2023-11-19T02:28:54;100528.44;;;-0.30;80.11
45253;BME280;63171;50.520;30.486;2023-11-19T02:29:45;100531.88;;;-0.31;80.06
45253;BME280;63171;50.520;30.486;2023-11-19T02:30:35;100530.19;;;-0.32;79.81
45253;BME280;63171;50.520;30.486;2023-11-19T02:31:24;100532.78;;;-0.35;79.83
45253;BME280;63171;50.520;30.486;2023-11-19T02:32:17;100524.19;;;-0.32;80.08
45253;BME280;63171;50.520;30.486;2023-11-19T02:33:06;100525.88;;;-0.30;80.05
45253;BME280;63171;50.520;30.486;2023-11-19T02:33:56;100526.72;;;-0.26;80.14
45253;BME280;63171;50.520;30.486;2023-11-19T02:34:49;100531.84;;;-0.24;80.36
45253;BME280;63171;50.520;30.486;2023-11-19T02:35:39;100531.00;;;-0.26;80.00
45253;BME280;63171;50.520;30.486;2023-11-19T02:36:30;100533.53;;;-0.22;80.08
45253;BME280;63171;50.520;30.486;2023-11-19T02:37:21;100534.41;;;-0.21;80.31
45253;BME280;63171;50.520;30.486;2023-11-19T02:38:10;100536.94;;;-0.17;80.54
45253;BME280;63171;50.520;30.486;2023-11-19T02:39:00;100544.66;;;-0.18;80.39
45253;BME280;63171;50.520;30.486;2023-11-19T02:39:51;100536.09;;;-0.19;80.49
45253;BME280;63171;50.520;30.486;2023-11-19T02:40:40;100555.00;;;-0.21;80.08
45253;BME280;63171;50.520;30.486;2023-11-19T02:41:30;100545.56;;;-0.22;80.27
45253;BME280;63171;50.520;30.486;2023-11-19T02:42:21;100550.72;;;-0.22;80.04
45253;BME280;63171;50.520;30.486;2023-11-19T02:43:12;100549.84;;;-0.23;80.08
45253;BME280;63171;50.520;30.486;2023-11-19T02:44:02;100552.44;;;-0.24;80.21
45253;BME280;63171;50.520;30.486;2023-11-19T02:44:55;100555.00;;;-0.27;80.14
45253;BME280;63171;50.520;30.486;2023-11-19T02:45:45;100559.34;;;-0.33;80.19
45253;BME280;63171;50.520;30.486;2023-11-19T02:46:35;100552.47;;;-0.31;80.37
45253;BME280;63171;50.520;30.486;2023-11-19T02:47:25;100554.22;;;-0.36;79.96
45253;BME280;63171;50.520;30.486;2023-11-19T02:48:15;100546.59;;;-0.49;79.86
45253;BME280;63171;50.520;30.486;2023-11-19T02:49:05;100545.69;;;-0.44;79.74
45253;BME280;63171;50.520;30.486;2023-11-19T02:49:56;100535.41;;;-0.42;79.97
45253;BME280;63171;50.520;30.486;2023-11-19T02:50:46;100545.66;;;-0.38;80.20
45253;BME280;63171;50.520;30.486;2023-11-19T02:51:37;100544.81;;;-0.38;80.26
45253;BME280;63171;50.520;30.486;2023-11-19T02:52:28;100540.53;;;-0.41;79.80
45253;BME280;63171;50.520;30.486;2023-11-19T02:53:18;100533.66;;;-0.42;79.95
45253;BME280;63171;50.520;30.486;2023-11-19T02:54:07;100531.09;;;-0.39;79.74
45253;BME280;63171;50.520;30.486;2023-11-19T02:54:59;100533.66;;;-0.36;80.20
45253;BME280;63171;50.520;30.486;2023-11-19T02:55:49;100542.25;;;-0.40;79.88
45253;BME280;63171;50.520;30.486;2023-11-19T02:56:42;100537.97;;;-0.39;80.06
45253;BME280;63171;50.520;30.486;2023-11-19T02:57:32;100542.31;;;-0.49;79.99
45253;BME280;63171;50.520;30.486;2023-11-19T02:58:24;100538.03;;;-0.54;79.76
45253;BME280;63171;50.520;30.486;2023-11-19T02:59:14;100528.63;;;-0.55;79.98
45253;BME280;63171;50.520;30.486;2023-11-19T03:00:16;100526.91;;;-0.55;79.73
45253;BME280;63171;50.520;30.486;2023-11-19T03:01:06;100531.19;;;-0.51;79.82
45253;BME280;63171;50.520;30.486;2023-11-19T03:02:02;100532.88;;;-0.50;79.99
45253;BME280;63171;50.520;30.486;2023-11-19T03:02:51;100526.88;;;-0.49;79.68
45253;BME280;63171;50.520;30.486;2023-11-19T03:03:48;100526.03;;;-0.51;80.24
45253;BME280;63171;50.520;30.486;2023-11-19T03:04:43;100526.00;;;-0.48;80.14
45253;BME280;63171;50.520;30.486;2023-11-19T03:05:35;100521.69;;;-0.46;80.23
45253;BME280;63171;50.520;30.486;2023-11-19T03:06:24;100525.13;;;-0.47;79.92
45253;BME280;63171;50.520;30.486;2023-11-19T03:07:16;100526.03;;;-0.49;80.20
45253;BME280;63171;50.520;30.486;2023-11-19T03:08:06;100526.03;;;-0.51;79.98
45253;BME280;63171;50.520;30.486;2023-11-19T03:08:56;100522.59;;;-0.51;80.18
45253;BME280;63171;50.520;30.486;2023-11-19T03:09:46;100513.16;;;-0.51;80.06
45253;BME280;63171;50.520;30.486;2023-11-19T03:10:36;100526.03;;;-0.49;79.93
45253;BME280;63171;50.520;30.486;2023-11-19T03:11:26;100518.31;;;-0.49;79.92
45253;BME280;63171;50.520;30.486;2023-11-19T03:12:17;100515.72;;;-0.49;80.03
45253;BME280;63171;50.520;30.486;2023-11-19T03:13:07;100518.28;;;-0.48;80.06
45253;BME280;63171;50.520;30.486;2023-11-19T03:14:02;100517.41;;;-0.45;80.12
45253;BME280;63171;50.520;30.486;2023-11-19T03:14:54;100512.28;;;-0.48;79.99
45253;BME280;63171;50.520;30.486;2023-11-19T03:15:44;100516.56;;;-0.46;80.36
45253;BME280;63171;50.520;30.486;2023-11-19T03:16:34;100511.41;;;-0.46;79.84
45253;BME280;63171;50.520;30.486;2023-11-19T03:17:24;100507.13;;;-0.45;80.13
45253;BME280;63171;50.520;30.486;2023-11-19T03:18:14;100514.81;;;-0.44;80.16
45253;BME280;63171;50.520;30.486;2023-11-19T03:19:04;100508.03;;;-0.51;79.73
45253;BME280;63171;50.520;30.486;2023-11-19T03:19:55;100512.31;;;-0.51;79.74
45253;BME280;63171;50.520;30.486;2023-11-19T03:20:44;100514.00;;;-0.49;80.25
45253;BME280;63171;50.520;30.486;2023-11-19T03:21:35;100508.03;;;-0.51;79.79
45253;BME280;63171;50.520;30.486;2023-11-19T03:22:26;100503.72;;;-0.50;80.25
45253;BME280;63171;50.520;30.486;2023-11-19T03:23:15;100503.72;;;-0.50;80.00
45253;BME280;63171;50.520;30.486;2023-11-19T03:24:05;100505.44;;;-0.49;79.89
45253;BME280;63171;50.520;30.486;2023-11-19T03:24:56;100498.56;;;-0.47;79.94
45253;BME280;63171;50.520;30.486;2023-11-19T03:25:46;100497.72;;;-0.48;80.20
45253;BME280;63171;50.520;30.486;2023-11-19T03:26:36;100486.56;;;-0.48;80.00
45253;BME280;63171;50.520;30.486;2023-11-19T03:27:27;100501.16;;;-0.49;80.11
45253;BME280;63171;50.520;30.486;2023-11-19T03:28:16;100492.59;;;-0.51;80.17
45253;BME280;63171;50.520;30.486;2023-11-19T03:29:08;100490.84;;;-0.49;80.01
45253;BME280;63171;50.520;30.486;2023-11-19T03:29:58;100495.19;;;-0.52;79.77
45253;BME280;63171;50.520;30.486;2023-11-19T03:30:48;100492.59;;;-0.54;80.30
45253;BME280;63171;50.520;30.486;2023-11-19T03:31:41;100478.03;;;-0.58;79.81
45253;BME280;63171;50.520;30.486;2023-11-19T03:32:32;100476.31;;;-0.53;80.10
45253;BME280;63171;50.520;30.486;2023-11-19T03:33:21;100476.31;;;-0.53;80.10
45253;BME280;63171;50.520;30.486;2023-11-19T03:34:11;100481.47;;;-0.53;80.05
45253;BME280;63171;50.520;30.486;2023-11-19T03:35:02;100481.47;;;-0.53;79.83
45253;BME280;63171;50.520;30.486;2023-11-19T03:35:53;100484.00;;;-0.50;80.25
45253;BME280;63171;50.520;30.486;2023-11-19T03:36:45;100477.16;;;-0.51;80.27
45253;BME280;63171;50.520;30.486;2023-11-19T03:37:35;100483.16;;;-0.55;79.99
45253;BME280;63171;50.520;30.486;2023-11-19T03:38:25;100478.88;;;-0.56;79.85
45253;BME280;63171;50.520;30.486;2023-11-19T03:39:15;100482.34;;;-0.58;79.76
45253;BME280;63171;50.520;30.486;2023-11-19T03:40:05;100484.94;;;-0.60;80.27
45253;BME280;63171;50.520;30.486;2023-11-19T03:40:55;100476.31;;;-0.56;80.08
45253;BME280;63171;50.520;30.486;2023-11-19T03:41:46;100481.44;;;-0.54;79.82
45253;BME280;63171;50.520;30.486;2023-11-19T03:42:36;100475.44;;;-0.55;80.03
45253;BME280;63171;50.520;30.486;2023-11-19T03:43:26;100478.03;;;-0.55;80.30
45253;BME280;63171;50.520;30.486;2023-11-19T03:44:18;100470.31;;;-0.52;80.25
45253;BME280;63171;50.520;30.486;2023-11-19T03:45:08;100480.59;;;-0.52;80.19
45253;BME280;63171;50.520;30.486;2023-11-19T03:45:58;100475.44;;;-0.52;80.33
45253;BME280;63171;50.520;30.486;2023-11-19T03:46:49;100482.34;;;-0.60;80.28
45253;BME280;63171;50.520;30.486;2023-11-19T03:47:38;100466.94;;;-0.63;79.82
45253;BME280;63171;50.520;30.486;2023-11-19T03:48:28;100469.50;;;-0.60;79.99
45253;BME280;63171;50.520;30.486;2023-11-19T03:49:19;100472.03;;;-0.55;79.93
45253;BME280;63171;50.520;30.486;2023-11-19T03:50:09;100470.31;;;-0.53;80.10
45253;BME280;63171;50.520;30.486;2023-11-19T03:50:58;100470.31;;;-0.55;80.42
45253;BME280;63171;50.520;30.486;2023-11-19T03:51:50;100471.19;;;-0.57;80.35
45253;BME280;63171;50.520;30.486;2023-11-19T03:52:40;100473.75;;;-0.57;80.13
45253;BME280;63171;50.520;30.486;2023-11-19T03:53:30;100472.88;;;-0.56;80.44
45253;BME280;63171;50.520;30.486;2023-11-19T03:54:20;100468.59;;;-0.54;80.49
45253;BME280;63171;50.520;30.486;2023-11-19T03:55:12;100467.72;;;-0.52;80.19
45253;BME280;63171;50.520;30.486;2023-11-19T03:56:01;100474.59;;;-0.51;80.27
45253;BME280;63171;50.520;30.486;2023-11-19T03:56:53;100466.84;;;-0.49;80.31
45253;BME280;63171;50.520;30.486;2023-11-19T03:57:42;100465.13;;;-0.49;80.60
45253;BME280;63171;50.520;30.486;2023-11-19T03:58:32;100468.53;;;-0.47;80.47
45253;BME280;63171;50.520;30.486;2023-11-19T03:59:24;100463.41;;;-0.47;80.59
45253;BME280;63171;50.520;30.486;2023-11-19T04:00:14;100466.84;;;-0.48;80.37
45253;BME280;63171;50.520;30.486;2023-11-19T04:01:04;100463.41;;;-0.47;80.35
45253;BME280;63171;50.520;30.486;2023-11-19T04:01:54;100471.13;;;-0.48;80.60
45253;BME280;63171;50.520;30.486;2023-11-19T04:02:45;100470.31;;;-0.53;80.51
45253;BME280;63171;50.520;30.486;2023-11-19T04:03:36;100470.28;;;-0.49;80.65
45253;BME280;63171;50.520;30.486;2023-11-19T04:04:26;100475.44;;;-0.50;80.70
45253;BME280;63171;50.520;30.486;2023-11-19T04:05:16;100472.00;;;-0.51;80.28
45253;BME280;63171;50.520;30.486;2023-11-19T04:06:08;100475.44;;;-0.50;80.51
45253;BME280;63171;50.520;30.486;2023-11-19T04:06:59;100466.00;;;-0.51;80.69
45253;BME280;63171;50.520;30.486;2023-11-19T04:07:50;100473.69;;;-0.48;80.62
45253;BME280;63171;50.520;30.486;2023-11-19T04:08:40;100472.81;;;-0.46;80.33
45253;BME280;63171;50.520;30.486;2023-11-19T04:09:30;100467.66;;;-0.46;80.35
45253;BME280;63171;50.520;30.486;2023-11-19T04:10:21;100475.34;;;-0.41;80.51
45253;BME280;63171;50.520;30.486;2023-11-19T04:11:13;100467.66;;;-0.44;80.49
45253;BME280;63171;50.520;30.486;2023-11-19T04:12:03;100471.94;;;-0.45;80.41
45253;BME280;63171;50.520;30.486;2023-11-19T04:12:53;100468.53;;;-0.47;80.18
45253;BME280;63171;50.520;30.486;2023-11-19T04:13:43;100472.81;;;-0.46;80.60
45253;BME280;63171;50.520;30.486;2023-11-19T04:14:34;100476.31;;;-0.56;80.47
45253;BME280;63171;50.520;30.486;2023-11-19T04:15:25;100464.34;;;-0.60;80.13
45253;BME280;63171;50.520;30.486;2023-11-19T04:16:16;100478.03;;;-0.55;80.09
45253;BME280;63171;50.520;30.486;2023-11-19T04:17:06;100478.03;;;-0.55;80.17
45253;BME280;63171;50.520;30.486;2023-11-19T04:17:55;100471.19;;;-0.59;79.98
45253;BME280;63171;50.520;30.486;2023-11-19T04:18:46;100476.38;;;-0.62;80.39
45253;BME280;63171;50.520;30.486;2023-11-19T04:19:35;100472.09;;;-0.63;80.22
45253;BME280;63171;50.520;30.486;2023-11-19T04:20:25;100477.22;;;-0.62;80.27
45253;BME280;63171;50.520;30.486;2023-11-19T04:21:19;100478.03;;;-0.56;80.22
45253;BME280;63171;50.520;30.486;2023-11-19T04:22:08;100475.44;;;-0.52;80.49
45253;BME280;63171;50.520;30.486;2023-11-19T04:22:58;100474.56;;;-0.48;80.62
45253;BME280;63171;50.520;30.486;2023-11-19T04:23:50;100480.56;;;-0.47;80.68
45253;BME280;63171;50.520;30.486;2023-11-19T04:24:40;100475.44;;;-0.50;80.27
45253;BME280;63171;50.520;30.486;2023-11-19T04:25:30;100472.00;;;-0.51;80.28
45253;BME280;63171;50.520;30.486;2023-11-19T04:26:20;100481.38;;;-0.45;80.64
45253;BME280;63171;50.520;30.486;2023-11-19T04:27:10;100488.25;;;-0.46;80.63
45253;BME280;63171;50.520;30.486;2023-11-19T04:27:59;100475.41;;;-0.49;80.54
45253;BME280;63171;50.520;30.486;2023-11-19T04:28:51;100478.00;;;-0.50;80.03
45253;BME280;63171;50.520;30.486;2023-11-19T04:29:44;100476.31;;;-0.51;80.21
45253;BME280;63171;50.520;30.486;2023-11-19T04:30:36;100471.16;;;-0.54;80.40
45253;BME280;63171;50.520;30.486;2023-11-19T04:31:28;100472.00;;;-0.54;79.90
45253;BME280;63171;50.520;30.486;2023-11-19T04:32:18;100474.59;;;-0.52;79.97
45253;BME280;63171;50.520;30.486;2023-11-19T04:33:08;100465.16;;;-0.55;80.30